createdAt,value
2023-03-25T00:01:18.530Z,68.80
2023-03-25T00:03:50.959Z,68.70
2023-03-25T00:06:18.424Z,68.70
2023-03-25T00:08:45.958Z,68.60
2023-03-25T00:11:12.984Z,68.50
2023-03-25T00:13:40.829Z,68.50
2023-03-25T00:16:10.294Z,68.30
2023-03-25T00:18:37.779Z,68.40
2023-03-25T00:21:05.614Z,68.30
2023-03-25T00:23:32.915Z,68.50
2023-03-25T00:26:03.256Z,68.50
2023-03-25T00:28:35.775Z,68.60
2023-03-25T00:31:07.214Z,68.70
2023-03-25T00:33:35.378Z,68.60
2023-03-25T00:36:04.911Z,68.60
2023-03-25T00:38:35.159Z,68.70
2023-03-25T00:41:25.320Z,68.80
2023-03-25T00:43:57.268Z,68.90
2023-03-25T00:46:28.863Z,68.80
2023-03-25T00:48:58.313Z,68.80
2023-03-25T00:51:26.816Z,68.80
2023-03-25T00:53:56.118Z,68.80
2023-03-25T00:56:24.510Z,68.80
2023-03-25T00:58:51.528Z,68.80
2023-03-25T01:01:23.829Z,68.80
2023-03-25T01:03:57.728Z,68.90
2023-03-25T01:06:32.431Z,68.90
2023-03-25T01:09:01.042Z,69.00
2023-03-25T01:11:34.608Z,69.00
2023-03-25T01:14:02.755Z,69.80
2023-03-25T01:16:29.950Z,69.00
2023-03-25T01:18:56.872Z,68.90
2023-03-25T01:21:25.363Z,69.00
2023-03-25T01:23:52.292Z,69.00
2023-03-25T01:26:19.161Z,69.70
2023-03-25T01:28:46.929Z,68.90
2023-03-25T01:31:14.969Z,68.90
2023-03-25T01:33:42.313Z,68.80
2023-03-25T01:36:12.875Z,68.70
2023-03-25T01:38:41.239Z,68.80
2023-03-25T01:41:10.132Z,69.00
2023-03-25T01:43:37.111Z,69.20
2023-03-25T01:46:04.657Z,69.10
2023-03-25T01:48:40.697Z,69.20
2023-03-25T01:51:30.326Z,69.30
2023-03-25T01:53:57.645Z,69.40
2023-03-25T01:56:30.926Z,69.20
2023-03-25T01:59:00.914Z,69.20
2023-03-25T02:01:28.345Z,69.10
2023-03-25T02:04:03.031Z,69.10
2023-03-25T02:06:47.923Z,69.20
2023-03-25T02:09:18.145Z,69.10
2023-03-25T02:11:45.329Z,69.20
2023-03-25T02:14:16.438Z,69.30
2023-03-25T02:17:07.732Z,69.60
2023-03-25T02:20:09.344Z,70.20
2023-03-25T02:23:07.669Z,70.60
2023-03-25T02:25:59.820Z,71.30
2023-03-25T02:28:52.682Z,71.70
2023-03-25T02:31:47.073Z,71.80
2023-03-25T02:34:41.929Z,72.00
2023-03-25T02:37:36.577Z,72.20
2023-03-25T02:40:11.006Z,72.40
2023-03-25T02:42:53.780Z,73.20
2023-03-25T02:45:28.034Z,73.40
2023-03-25T02:48:00.892Z,73.10
2023-03-25T02:50:34.415Z,73.20
2023-03-25T02:53:08.779Z,73.40
2023-03-25T02:55:41.515Z,73.70
2023-03-25T02:58:13.089Z,73.60
2023-03-25T03:00:40.595Z,73.80
2023-03-25T03:03:09.097Z,74.00
2023-03-25T03:05:39.814Z,74.30
2023-03-25T03:08:19.703Z,74.60
2023-03-25T03:11:16.789Z,75.40
2023-03-25T03:13:49.773Z,75.70
2023-03-25T03:16:27.114Z,75.50
2023-03-25T03:19:02.291Z,75.70
2023-03-25T03:21:40.063Z,75.80
2023-03-25T03:24:16.954Z,76.10
2023-03-25T03:26:55.963Z,76.10
2023-03-25T03:29:43.820Z,76.60
2023-03-25T03:32:21.005Z,76.40
2023-03-25T03:35:02.391Z,76.50
2023-03-25T03:37:39.902Z,76.80
2023-03-25T03:40:13.599Z,77.20
2023-03-25T03:42:45.185Z,77.40
2023-03-25T03:45:25.472Z,77.70
2023-03-25T03:47:56.863Z,77.80
2023-03-25T03:50:31.674Z,77.80
2023-03-25T03:53:36.445Z,78.00
2023-03-25T03:56:08.039Z,78.30
2023-03-25T03:58:44.499Z,77.90
2023-03-25T04:01:11.434Z,78.40
2023-03-25T04:04:06.387Z,78.60
2023-03-25T04:06:38.636Z,79.20
2023-03-25T04:09:41.913Z,79.30
2023-03-25T04:12:16.035Z,79.90
2023-03-25T04:14:43.300Z,79.80
2023-03-25T04:17:10.583Z,80.00
2023-03-25T04:19:37.717Z,80.30
2023-03-25T04:22:05.648Z,80.30
2023-03-25T04:24:33.008Z,80.50
2023-03-25T04:27:03.602Z,80.60
2023-03-25T04:29:33.948Z,80.70
2023-03-25T04:32:01.648Z,80.70
2023-03-25T04:34:28.931Z,80.80
2023-03-25T04:36:57.989Z,80.80
2023-03-25T04:39:25.811Z,80.80
2023-03-25T04:41:53.886Z,80.80
2023-03-25T04:44:22.035Z,80.80
2023-03-25T04:46:49.139Z,80.80
2023-03-25T04:49:21.675Z,80.80
2023-03-25T04:51:51.519Z,81.10
2023-03-25T04:54:20.867Z,80.80
2023-03-25T04:56:49.801Z,80.90
2023-03-25T04:59:24.350Z,81.00
2023-03-25T05:01:52.799Z,81.00
2023-03-25T05:04:20.515Z,81.20
2023-03-25T05:06:50.605Z,81.40
2023-03-25T05:09:24.901Z,81.60
2023-03-25T05:11:53.583Z,82.00
2023-03-25T05:14:22.171Z,82.50
2023-03-25T05:16:49.549Z,82.30
2023-03-25T05:19:19.000Z,82.20
2023-03-25T05:21:46.498Z,82.30
2023-03-25T05:24:13.701Z,82.70
2023-03-25T05:26:42.389Z,82.80
2023-03-25T05:29:14.353Z,82.80
2023-03-25T05:31:46.398Z,82.40
2023-03-25T05:34:17.085Z,82.30
2023-03-25T05:36:44.393Z,82.30
2023-03-25T05:39:11.391Z,82.40
2023-03-25T05:41:41.685Z,82.40
2023-03-25T05:44:15.347Z,82.30
2023-03-25T05:46:42.547Z,82.30
2023-03-25T05:49:09.498Z,82.10
2023-03-25T05:51:39.229Z,82.20
2023-03-25T05:54:11.803Z,82.20
2023-03-25T05:56:39.365Z,82.10
2023-03-25T05:59:06.361Z,82.20
2023-03-25T06:01:37.826Z,82.50
2023-03-25T06:04:04.977Z,81.80
2023-03-25T06:06:34.193Z,79.30
2023-03-25T06:09:02.422Z,76.80
2023-03-25T06:11:29.833Z,73.70
2023-03-25T06:13:56.996Z,71.20
2023-03-25T06:16:29.875Z,68.30
2023-03-25T06:19:00.300Z,64.90
2023-03-25T06:21:29.737Z,62.40
2023-03-25T06:23:59.546Z,60.40
2023-03-25T06:26:26.842Z,59.10
2023-03-25T06:28:54.873Z,58.10
2023-03-25T06:31:26.555Z,57.20
2023-03-25T06:33:54.752Z,56.00
2023-03-25T06:36:21.744Z,54.90
2023-03-25T06:38:50.433Z,54.40
2023-03-25T06:41:25.109Z,54.60
2023-03-25T06:44:03.290Z,55.40
2023-03-25T06:46:50.142Z,56.50
2023-03-25T06:49:22.944Z,57.10
2023-03-25T06:51:50.449Z,57.60
2023-03-25T06:54:18.590Z,57.30
2023-03-25T06:56:45.545Z,56.70
2023-03-25T06:59:12.388Z,55.70
2023-03-25T07:01:39.637Z,54.60
2023-03-25T07:04:06.432Z,53.70
2023-03-25T07:06:33.326Z,51.60
2023-03-25T07:09:00.285Z,49.20
2023-03-25T07:11:28.691Z,47.70
2023-03-25T07:13:55.692Z,46.70
2023-03-25T07:16:24.354Z,45.90
2023-03-25T07:18:51.560Z,44.90
2023-03-25T07:21:19.043Z,43.20
2023-03-25T07:23:45.938Z,43.20
2023-03-25T07:26:13.444Z,41.90
2023-03-25T07:28:40.910Z,42.80
2023-03-25T07:31:08.750Z,43.30
2023-03-25T07:33:36.538Z,43.80
2023-03-25T07:36:04.290Z,42.40
2023-03-25T07:38:31.124Z,42.10
2023-03-25T07:40:58.088Z,43.40
2023-03-25T07:43:25.172Z,42.50
2023-03-25T07:45:56.839Z,41.00
2023-03-25T07:48:24.464Z,40.60
2023-03-25T07:50:52.317Z,41.30
2023-03-25T07:53:19.400Z,41.70
2023-03-25T07:55:46.525Z,41.30
2023-03-25T07:58:13.377Z,40.20
2023-03-25T08:00:40.569Z,39.90
2023-03-25T08:03:07.576Z,38.80
2023-03-25T08:05:34.500Z,38.20
2023-03-25T08:08:01.388Z,37.80
2023-03-25T08:10:28.317Z,37.50
2023-03-25T08:12:55.431Z,36.40
2023-03-25T08:15:24.771Z,36.40
2023-03-25T08:17:54.697Z,37.50
2023-03-25T08:20:21.537Z,37.30
2023-03-25T08:22:48.479Z,38.40
2023-03-25T08:25:15.478Z,38.60
2023-03-25T08:27:42.396Z,37.60
2023-03-25T08:30:10.318Z,37.60
2023-03-25T08:32:38.522Z,37.70
2023-03-25T08:35:06.080Z,36.10
2023-03-25T08:37:35.554Z,36.10
2023-03-25T08:40:06.936Z,34.70
2023-03-25T08:42:33.719Z,35.60
2023-03-25T08:45:00.714Z,34.80
2023-03-25T08:47:27.797Z,35.50
2023-03-25T08:49:54.705Z,34.30
2023-03-25T08:52:22.038Z,34.20
2023-03-25T08:54:48.850Z,33.20
2023-03-25T08:57:15.751Z,32.20
2023-03-25T08:59:43.102Z,32.90
2023-03-25T09:02:11.667Z,33.30
2023-03-25T09:04:41.514Z,33.30
2023-03-25T09:07:12.648Z,33.80
2023-03-25T09:09:42.730Z,34.80
2023-03-25T09:12:09.638Z,34.50
2023-03-25T09:14:36.665Z,33.10
2023-03-25T09:17:04.475Z,32.00
2023-03-25T09:19:31.486Z,31.10
2023-03-25T09:21:58.502Z,30.70
2023-03-25T09:24:25.650Z,30.70
2023-03-25T09:26:52.467Z,30.60
2023-03-25T09:29:19.291Z,31.20
2023-03-25T09:31:46.134Z,30.80
2023-03-25T09:34:14.628Z,31.40
2023-03-25T09:36:43.132Z,31.50
2023-03-25T09:39:09.953Z,31.00
2023-03-25T09:41:48.928Z,30.40
2023-03-25T09:44:25.422Z,30.00
2023-03-25T09:46:52.527Z,29.60
2023-03-25T09:49:25.171Z,29.70
2023-03-25T09:51:53.493Z,29.50
2023-03-25T09:54:30.987Z,29.00
2023-03-25T09:57:01.830Z,29.20
2023-03-25T09:59:36.920Z,29.80
2023-03-25T10:02:22.400Z,30.00
2023-03-25T10:04:52.474Z,31.00
2023-03-25T10:07:27.827Z,32.20
2023-03-25T10:10:13.513Z,32.70
2023-03-25T10:12:58.647Z,32.70
2023-03-25T10:15:29.757Z,32.40
2023-03-25T10:17:59.703Z,31.70
2023-03-25T10:20:29.384Z,32.00
2023-03-25T10:23:04.043Z,32.50
2023-03-25T10:25:33.590Z,32.70
2023-03-25T10:28:01.235Z,32.40
2023-03-25T10:30:32.440Z,31.60
2023-03-25T10:33:01.687Z,30.50
2023-03-25T10:35:30.102Z,29.30
2023-03-25T10:38:08.711Z,29.50
2023-03-25T10:40:44.968Z,29.80
2023-03-25T10:43:23.937Z,30.80
2023-03-25T10:45:52.179Z,30.00
2023-03-25T10:48:27.983Z,29.20
2023-03-25T10:51:15.204Z,28.40
2023-03-25T10:53:42.665Z,29.10
2023-03-25T10:56:12.799Z,29.30
2023-03-25T10:58:40.402Z,29.00
2023-03-25T11:01:12.071Z,28.90
2023-03-25T11:03:40.689Z,29.00
2023-03-25T11:06:07.783Z,28.10
2023-03-25T11:08:34.690Z,26.70
2023-03-25T11:11:03.840Z,26.20
2023-03-25T11:13:31.950Z,26.70
2023-03-25T11:16:00.990Z,27.10
2023-03-25T11:18:34.086Z,26.80
2023-03-25T11:21:02.881Z,26.40
2023-03-25T11:23:56.141Z,25.20
2023-03-25T11:26:25.245Z,25.60
2023-03-25T11:28:56.170Z,25.60
2023-03-25T11:31:27.460Z,24.70
2023-03-25T11:34:03.794Z,24.50
2023-03-25T11:36:31.884Z,25.20
2023-03-25T11:39:00.616Z,25.80
2023-03-25T11:41:28.489Z,25.60
2023-03-25T11:43:55.684Z,24.80
2023-03-25T11:46:22.728Z,25.00
2023-03-25T11:48:52.473Z,24.40
2023-03-25T11:51:19.527Z,24.10
2023-03-25T11:53:48.769Z,23.90
2023-03-25T11:56:17.322Z,23.30
2023-03-25T11:58:44.163Z,23.60
2023-03-25T12:01:31.729Z,21.70
2023-03-25T12:04:17.483Z,22.20
2023-03-25T12:07:16.576Z,21.30
2023-03-25T12:09:53.777Z,21.20
2023-03-25T12:12:24.662Z,20.10
2023-03-25T12:15:04.595Z,19.80
2023-03-25T12:17:31.536Z,19.60
2023-03-25T12:19:58.333Z,18.00
2023-03-25T12:22:37.181Z,18.40
2023-03-25T12:25:27.143Z,18.00
2023-03-25T12:28:07.865Z,19.50
2023-03-25T12:30:41.174Z,20.60
2023-03-25T12:33:08.009Z,20.60
2023-03-25T12:35:35.040Z,20.00
2023-03-25T12:38:02.010Z,19.60
2023-03-25T12:40:47.651Z,19.40
2023-03-25T12:43:37.537Z,18.80
2023-03-25T12:46:05.221Z,18.60
2023-03-25T12:48:38.286Z,19.20
2023-03-25T12:51:05.177Z,18.60
2023-03-25T12:53:50.532Z,18.50
2023-03-25T12:56:36.370Z,18.70
2023-03-25T12:59:09.053Z,19.20
2023-03-25T13:01:41.750Z,19.40
2023-03-25T13:04:15.981Z,20.00
2023-03-25T13:06:45.237Z,19.70
2023-03-25T13:09:30.698Z,19.20
2023-03-25T13:12:00.439Z,18.90
2023-03-25T13:14:36.872Z,19.60
2023-03-25T13:17:07.454Z,20.40
2023-03-25T13:19:36.662Z,21.20
2023-03-25T13:22:17.106Z,21.70
2023-03-25T13:24:55.696Z,21.30
2023-03-25T13:27:23.154Z,20.80
2023-03-25T13:29:51.838Z,20.50
2023-03-25T13:32:22.821Z,19.70
2023-03-25T13:34:52.721Z,19.90
2023-03-25T13:37:26.040Z,20.00
2023-03-25T13:39:56.953Z,19.80
2023-03-25T13:42:42.631Z,19.50
2023-03-25T13:45:15.638Z,19.80
2023-03-25T13:47:44.970Z,19.60
2023-03-25T13:50:14.966Z,19.00
2023-03-25T13:52:43.527Z,19.90
2023-03-25T13:55:16.414Z,20.30
2023-03-25T13:57:58.671Z,20.70
2023-03-25T14:00:34.560Z,21.40
2023-03-25T14:03:19.849Z,21.00
2023-03-25T14:06:05.456Z,20.90
2023-03-25T14:08:51.320Z,21.00
2023-03-25T14:11:26.974Z,21.20
2023-03-25T14:13:56.227Z,21.70
2023-03-25T14:16:28.121Z,22.30
2023-03-25T14:19:07.284Z,21.40
2023-03-25T14:21:40.209Z,21.90
2023-03-25T14:24:17.749Z,21.90
2023-03-25T14:26:55.396Z,21.30
2023-03-25T14:29:41.995Z,21.10
2023-03-25T14:32:08.896Z,21.70
2023-03-25T14:34:39.380Z,22.00
2023-03-25T14:37:07.622Z,21.80
2023-03-25T14:39:34.438Z,22.50
2023-03-25T14:42:02.277Z,23.30
2023-03-25T14:44:33.480Z,22.50
2023-03-25T14:47:15.922Z,22.80
2023-03-25T14:50:06.187Z,23.60
2023-03-25T14:52:41.469Z,24.00
2023-03-25T14:55:22.079Z,23.50
2023-03-25T14:57:50.759Z,23.90
2023-03-25T15:00:29.011Z,23.30
2023-03-25T15:03:17.697Z,23.20
2023-03-25T15:05:45.368Z,23.30
2023-03-25T15:08:17.640Z,23.00
2023-03-25T15:10:48.406Z,23.30
2023-03-25T15:13:21.649Z,23.70
2023-03-25T15:15:50.547Z,23.70
2023-03-25T15:18:36.115Z,24.20
2023-03-25T15:21:04.159Z,24.40
2023-03-25T15:23:49.700Z,24.40
2023-03-25T15:26:34.188Z,24.60
2023-03-25T15:29:04.123Z,24.70
2023-03-25T15:32:03.121Z,24.60
2023-03-25T15:34:41.372Z,24.20
2023-03-25T15:37:39.301Z,24.40
2023-03-25T15:40:33.273Z,24.40
2023-03-25T15:43:09.278Z,24.40
2023-03-25T15:45:54.987Z,24.30
2023-03-25T15:48:28.935Z,24.80
2023-03-25T15:51:15.673Z,24.50
2023-03-25T15:53:52.039Z,24.40
2023-03-25T15:56:27.299Z,25.10
2023-03-25T15:59:08.116Z,25.50
2023-03-25T16:01:36.151Z,26.20
2023-03-25T16:04:32.113Z,26.50
2023-03-25T16:06:59.559Z,27.00
2023-03-25T16:09:28.762Z,27.30
2023-03-25T16:12:02.892Z,27.70
2023-03-25T16:14:31.654Z,28.00
2023-03-25T16:16:59.831Z,28.40
2023-03-25T16:19:28.872Z,28.60
2023-03-25T16:21:56.060Z,28.80
2023-03-25T16:24:24.898Z,29.20
2023-03-25T16:26:52.713Z,29.20
2023-03-25T16:29:23.862Z,29.40
2023-03-25T16:31:51.914Z,29.50
2023-03-25T16:34:18.949Z,29.60
2023-03-25T16:36:47.226Z,29.60
2023-03-25T16:39:14.902Z,30.00
2023-03-25T16:41:49.114Z,30.00
2023-03-25T16:44:17.818Z,29.70
2023-03-25T16:46:45.762Z,29.90
2023-03-25T16:49:15.818Z,30.00
2023-03-25T16:51:44.428Z,30.10
2023-03-25T16:54:19.099Z,30.30
2023-03-25T16:56:47.030Z,30.70
2023-03-25T16:59:20.350Z,30.50
2023-03-25T17:01:51.962Z,30.60
2023-03-25T17:04:22.161Z,30.90
2023-03-25T17:06:53.004Z,31.60
2023-03-25T17:09:25.815Z,32.20
2023-03-25T17:11:55.039Z,32.60
2023-03-25T17:14:24.931Z,33.00
2023-03-25T17:16:52.597Z,33.80
2023-03-25T17:19:21.342Z,34.10
2023-03-25T17:22:16.599Z,34.40
2023-03-25T17:24:53.372Z,34.60
2023-03-25T17:27:43.145Z,34.40
2023-03-25T17:30:16.421Z,34.50
2023-03-25T17:32:44.901Z,34.30
2023-03-25T17:35:30.926Z,33.60
2023-03-25T17:37:57.884Z,33.60
2023-03-25T17:40:25.903Z,33.70
2023-03-25T17:42:53.066Z,34.10
2023-03-25T17:45:22.242Z,33.70
2023-03-25T17:47:50.099Z,33.20
2023-03-25T17:50:21.779Z,33.00
2023-03-25T17:52:48.709Z,32.90
2023-03-25T17:55:15.564Z,32.70
2023-03-25T17:57:42.641Z,32.90
2023-03-25T18:00:17.249Z,32.90
2023-03-25T18:02:44.789Z,33.00
2023-03-25T18:05:11.872Z,33.40
2023-03-25T18:07:38.833Z,33.40
2023-03-25T18:10:32.108Z,33.60
2023-03-25T18:12:59.028Z,34.20
2023-03-25T18:15:25.919Z,34.90
2023-03-25T18:17:55.406Z,35.40
2023-03-25T18:20:25.977Z,35.40
2023-03-25T18:22:54.653Z,35.70
2023-03-25T18:25:23.165Z,35.90
2023-03-25T18:27:53.838Z,36.20
2023-03-25T18:30:31.851Z,36.60
2023-03-25T18:32:58.782Z,36.70
2023-03-25T18:35:26.237Z,36.70
2023-03-25T18:37:53.416Z,37.20
2023-03-25T18:40:23.439Z,37.40
2023-03-25T18:42:51.378Z,37.70
2023-03-25T18:45:19.164Z,38.30
2023-03-25T18:47:46.051Z,38.80
2023-03-25T18:50:13.090Z,39.10
2023-03-25T18:52:39.843Z,39.60
2023-03-25T18:55:08.845Z,40.10
2023-03-25T18:57:35.907Z,40.40
2023-03-25T19:00:05.226Z,40.60
2023-03-25T19:02:32.100Z,40.90
2023-03-25T19:05:01.001Z,41.00
2023-03-25T19:07:28.675Z,41.20
2023-03-25T19:09:55.540Z,41.60
2023-03-25T19:12:22.453Z,41.80
2023-03-25T19:14:49.220Z,42.10
2023-03-25T19:17:16.086Z,42.40
2023-03-25T19:19:42.906Z,42.60
2023-03-25T19:22:10.015Z,42.70
2023-03-25T19:24:36.860Z,43.00
2023-03-25T19:27:03.721Z,43.20
2023-03-25T19:29:30.611Z,43.40
2023-03-25T19:31:57.385Z,43.50
2023-03-25T19:34:24.443Z,43.80
2023-03-25T19:36:53.144Z,44.00
2023-03-25T19:39:22.761Z,44.20
2023-03-25T19:41:51.356Z,44.60
2023-03-25T19:44:18.149Z,45.10
2023-03-25T19:46:44.939Z,45.40
2023-03-25T19:49:11.795Z,45.60
2023-03-25T19:51:38.619Z,45.90
2023-03-25T19:54:05.725Z,46.40
2023-03-25T19:56:35.661Z,46.60
2023-03-25T19:59:02.582Z,46.80
2023-03-25T20:01:29.418Z,47.00
2023-03-25T20:03:56.344Z,47.20
2023-03-25T20:06:23.198Z,47.30
2023-03-25T20:08:50.014Z,47.50
2023-03-25T20:11:16.812Z,47.60
2023-03-25T20:13:44.241Z,47.60
2023-03-25T20:16:11.300Z,47.60
2023-03-25T20:18:38.728Z,47.50
2023-03-25T20:21:09.080Z,47.50
2023-03-25T20:23:36.164Z,47.50
2023-03-25T20:26:03.470Z,47.30
2023-03-25T20:28:31.584Z,47.10
2023-03-25T20:30:58.584Z,46.70
2023-03-25T20:33:28.015Z,46.30
2023-03-25T20:35:55.262Z,45.90
2023-03-25T20:38:22.550Z,45.70
2023-03-25T20:40:54.284Z,45.40
2023-03-25T20:43:21.082Z,45.10
2023-03-25T20:45:50.437Z,44.90
2023-03-25T20:48:33.086Z,45.90
2023-03-25T20:51:05.265Z,46.00
2023-03-25T20:53:32.512Z,46.60
2023-03-25T20:56:01.162Z,47.90
2023-03-25T20:58:28.567Z,48.00
2023-03-25T21:00:59.016Z,48.40
2023-03-25T21:03:27.292Z,49.10
2023-03-25T21:05:58.999Z,49.40
2023-03-25T21:08:30.419Z,49.70
2023-03-25T21:10:58.250Z,50.00
2023-03-25T21:13:28.066Z,50.30
2023-03-25T21:15:56.169Z,50.50
2023-03-25T21:18:23.432Z,50.80
2023-03-25T21:20:51.655Z,51.10
2023-03-25T21:23:19.004Z,51.60
2023-03-25T21:25:46.433Z,51.90
2023-03-25T21:28:13.248Z,52.40
2023-03-25T21:30:40.630Z,52.80
2023-03-25T21:33:09.213Z,53.20
2023-03-25T21:35:37.320Z,53.40
2023-03-25T21:38:07.424Z,53.40
2023-03-25T21:40:39.449Z,53.30
2023-03-25T21:43:07.068Z,53.00
2023-03-25T21:45:36.936Z,52.50
2023-03-25T21:48:05.277Z,52.10
2023-03-25T21:50:34.301Z,51.90
2023-03-25T21:53:03.552Z,51.70
2023-03-25T21:55:35.633Z,51.60
2023-03-25T21:58:02.575Z,51.60
2023-03-25T22:00:29.854Z,51.60
2023-03-25T22:02:58.549Z,51.70
2023-03-25T22:05:31.136Z,51.80
2023-03-25T22:08:02.202Z,51.90
2023-03-25T22:10:29.003Z,52.00
2023-03-25T22:12:56.419Z,52.10
2023-03-25T22:15:23.415Z,52.30
2023-03-25T22:17:51.301Z,52.30
2023-03-25T22:20:19.612Z,52.30
2023-03-25T22:22:47.727Z,52.30
2023-03-25T22:25:14.915Z,52.20
2023-03-25T22:27:41.761Z,52.30
2023-03-25T22:30:09.979Z,52.30
2023-03-25T22:32:36.972Z,52.30
2023-03-25T22:35:07.237Z,52.30
2023-03-25T22:37:34.731Z,52.20
2023-03-25T22:40:01.587Z,52.10
2023-03-25T22:42:29.635Z,52.20
2023-03-25T22:44:56.531Z,52.20
2023-03-25T22:47:23.532Z,52.40
2023-03-25T22:49:50.370Z,52.40
2023-03-25T22:52:17.290Z,52.40
2023-03-25T22:54:44.108Z,52.50
2023-03-25T22:57:11.148Z,52.50
2023-03-25T22:59:39.204Z,52.60
2023-03-25T23:02:07.514Z,52.70
2023-03-25T23:04:34.372Z,52.80
2023-03-25T23:07:07.771Z,52.90
2023-03-25T23:09:41.147Z,53.10
2023-03-25T23:12:10.088Z,53.20
2023-03-25T23:14:38.338Z,53.40
2023-03-25T23:17:05.227Z,53.50
2023-03-25T23:19:32.149Z,53.40
2023-03-25T23:22:01.566Z,53.50
2023-03-25T23:24:29.104Z,53.60
2023-03-25T23:26:56.471Z,53.60
2023-03-25T23:29:23.342Z,53.70
2023-03-25T23:31:50.260Z,53.70
2023-03-25T23:34:17.179Z,53.80
2023-03-25T23:36:45.411Z,53.70
2023-03-25T23:39:14.185Z,53.80
2023-03-25T23:41:41.198Z,53.80
2023-03-25T23:44:08.177Z,54.50
2023-03-25T23:46:35.065Z,53.80
2023-03-25T23:49:02.449Z,53.70
2023-03-25T23:51:31.286Z,53.60
2023-03-25T23:53:58.094Z,53.60
2023-03-25T23:56:25.791Z,53.50
2023-03-25T23:58:52.816Z,53.50
